sensor_id;sensor_type;location;lat;lon;timestamp;temperature;humidity
57709;SHT35;42558;52.388;13.390;2023-04-26T00:00:14;4.14;74.35
57709;SHT35;42558;52.388;13.390;2023-04-26T00:02:44;4.12;74.32
57709;SHT35;42558;52.388;13.390;2023-04-26T00:05:14;4.11;74.40
57709;SHT35;42558;52.388;13.390;2023-04-26T00:07:45;4.10;74.32
57709;SHT35;42558;52.388;13.390;2023-04-26T00:10:15;4.09;74.29
57709;SHT35;42558;52.388;13.390;2023-04-26T00:12:45;4.09;74.32
57709;SHT35;42558;52.388;13.390;2023-04-26T00:15:14;4.05;74.47
57709;SHT35;42558;52.388;13.390;2023-04-26T00:17:44;4.06;74.61
57709;SHT35;42558;52.388;13.390;2023-04-26T00:20:14;4.05;74.53
57709;SHT35;42558;52.388;13.390;2023-04-26T00:22:44;4.00;74.66
57709;SHT35;42558;52.388;13.390;2023-04-26T00:25:14;3.99;74.73
57709;SHT35;42558;52.388;13.390;2023-04-26T00:27:44;3.97;74.97
57709;SHT35;42558;52.388;13.390;2023-04-26T00:30:14;3.94;75.02
57709;SHT35;42558;52.388;13.390;2023-04-26T00:32:44;3.92;74.97
57709;SHT35;42558;52.388;13.390;2023-04-26T00:35:15;3.86;75.27
57709;SHT35;42558;52.388;13.390;2023-04-26T00:37:45;3.83;75.53
57709;SHT35;42558;52.388;13.390;2023-04-26T00:40:15;3.77;75.75
57709;SHT35;42558;52.388;13.390;2023-04-26T00:42:45;3.76;75.91
57709;SHT35;42558;52.388;13.390;2023-04-26T00:45:13;3.76;75.76
57709;SHT35;42558;52.388;13.390;2023-04-26T00:47:42;3.71;76.00
57709;SHT35;42558;52.388;13.390;2023-04-26T00:50:10;3.66;76.27
57709;SHT35;42558;52.388;13.390;2023-04-26T00:52:39;3.63;76.40
57709;SHT35;42558;52.388;13.390;2023-04-26T00:55:07;3.59;76.51
57709;SHT35;42558;52.388;13.390;2023-04-26T00:57:35;3.57;76.67
57709;SHT35;42558;52.388;13.390;2023-04-26T01:00:04;3.56;76.75
57709;SHT35;42558;52.388;13.390;2023-04-26T01:02:32;3.54;76.85
57709;SHT35;42558;52.388;13.390;2023-04-26T01:05:02;3.54;76.86
57709;SHT35;42558;52.388;13.390;2023-04-26T01:07:33;3.55;76.83
57709;SHT35;42558;52.388;13.390;2023-04-26T01:10:04;3.58;76.74
57709;SHT35;42558;52.388;13.390;2023-04-26T01:12:37;3.58;76.78
57709;SHT35;42558;52.388;13.390;2023-04-26T01:15:07;3.56;76.82
57709;SHT35;42558;52.388;13.390;2023-04-26T01:17:37;3.53;77.13
57709;SHT35;42558;52.388;13.390;2023-04-26T01:20:06;3.49;77.29
57709;SHT35;42558;52.388;13.390;2023-04-26T01:22:37;3.45;77.33
57709;SHT35;42558;52.388;13.390;2023-04-26T01:25:07;3.40;77.58
57709;SHT35;42558;52.388;13.390;2023-04-26T01:27:40;3.32;77.77
57709;SHT35;42558;52.388;13.390;2023-04-26T01:30:10;3.26;78.08
57709;SHT35;42558;52.388;13.390;2023-04-26T01:32:40;3.22;78.39
57709;SHT35;42558;52.388;13.390;2023-04-26T01:35:10;3.22;78.39
57709;SHT35;42558;52.388;13.390;2023-04-26T01:37:40;3.20;78.67
57709;SHT35;42558;52.388;13.390;2023-04-26T01:40:10;3.22;78.71
57709;SHT35;42558;52.388;13.390;2023-04-26T01:42:40;3.24;78.59
57709;SHT35;42558;52.388;13.390;2023-04-26T01:45:10;3.22;78.66
57709;SHT35;42558;52.388;13.390;2023-04-26T01:47:40;3.21;78.66
57709;SHT35;42558;52.388;13.390;2023-04-26T01:50:10;3.21;78.80
57709;SHT35;42558;52.388;13.390;2023-04-26T01:52:40;3.17;78.93
57709;SHT35;42558;52.388;13.390;2023-04-26T01:55:10;3.10;79.12
57709;SHT35;42558;52.388;13.390;2023-04-26T01:57:40;3.09;79.28
57709;SHT35;42558;52.388;13.390;2023-04-26T02:00:10;3.09;79.23
57709;SHT35;42558;52.388;13.390;2023-04-26T02:02:41;3.06;79.45
57709;SHT35;42558;52.388;13.390;2023-04-26T02:05:10;3.06;79.52
57709;SHT35;42558;52.388;13.390;2023-04-26T02:07:41;3.09;79.42
57709;SHT35;42558;52.388;13.390;2023-04-26T02:10:10;3.08;79.33
57709;SHT35;42558;52.388;13.390;2023-04-26T02:12:40;3.04;79.52
57709;SHT35;42558;52.388;13.390;2023-04-26T02:15:10;3.04;79.52
57709;SHT35;42558;52.388;13.390;2023-04-26T02:17:39;3.04;79.61
57709;SHT35;42558;52.388;13.390;2023-04-26T02:20:07;3.01;79.73
57709;SHT35;42558;52.388;13.390;2023-04-26T02:22:38;2.97;79.85
57709;SHT35;42558;52.388;13.390;2023-04-26T02:25:07;2.91;80.06
57709;SHT35;42558;52.388;13.390;2023-04-26T02:27:35;2.90;80.20
57709;SHT35;42558;52.388;13.390;2023-04-26T02:30:04;2.89;80.19
57709;SHT35;42558;52.388;13.390;2023-04-26T02:32:32;2.85;80.36
57709;SHT35;42558;52.388;13.390;2023-04-26T02:35:01;2.80;80.48
57709;SHT35;42558;52.388;13.390;2023-04-26T02:37:29;2.77;80.63
57709;SHT35;42558;52.388;13.390;2023-04-26T02:39:57;2.75;80.83
57709;SHT35;42558;52.388;13.390;2023-04-26T02:42:26;2.72;80.89
57709;SHT35;42558;52.388;13.390;2023-04-26T02:44:54;2.71;81.03
57709;SHT35;42558;52.388;13.390;2023-04-26T02:47:23;2.67;81.14
57709;SHT35;42558;52.388;13.390;2023-04-26T02:49:51;2.65;81.35
57709;SHT35;42558;52.388;13.390;2023-04-26T02:52:20;2.60;81.38
57709;SHT35;42558;52.388;13.390;2023-04-26T02:54:48;2.57;81.68
57709;SHT35;42558;52.388;13.390;2023-04-26T02:57:16;2.55;81.73
57709;SHT35;42558;52.388;13.390;2023-04-26T02:59:45;2.55;81.81
57709;SHT35;42558;52.388;13.390;2023-04-26T03:02:13;2.55;81.84
57709;SHT35;42558;52.388;13.390;2023-04-26T03:04:42;2.52;81.89
57709;SHT35;42558;52.388;13.390;2023-04-26T03:07:10;2.50;82.03
57709;SHT35;42558;52.388;13.390;2023-04-26T03:09:39;2.49;82.06
57709;SHT35;42558;52.388;13.390;2023-04-26T03:12:08;2.44;82.30
57709;SHT35;42558;52.388;13.390;2023-04-26T03:14:42;2.39;82.32
57709;SHT35;42558;52.388;13.390;2023-04-26T03:17:09;2.38;82.48
57709;SHT35;42558;52.388;13.390;2023-04-26T03:19:39;2.35;82.41
57709;SHT35;42558;52.388;13.390;2023-04-26T03:22:09;2.34;82.68
57709;SHT35;42558;52.388;13.390;2023-04-26T03:24:43;2.34;82.69
57709;SHT35;42558;52.388;13.390;2023-04-26T03:27:12;2.31;82.68
57709;SHT35;42558;52.388;13.390;2023-04-26T03:29:42;2.25;82.89
57709;SHT35;42558;52.388;13.390;2023-04-26T03:32:12;2.20;83.12
57709;SHT35;42558;52.388;13.390;2023-04-26T03:34:42;2.20;83.21
57709;SHT35;42558;52.388;13.390;2023-04-26T03:37:12;2.16;83.25
57709;SHT35;42558;52.388;13.390;2023-04-26T03:39:42;2.14;83.53
57709;SHT35;42558;52.388;13.390;2023-04-26T03:42:12;2.14;83.59
57709;SHT35;42558;52.388;13.390;2023-04-26T03:44:45;2.14;83.77
57709;SHT35;42558;52.388;13.390;2023-04-26T03:47:15;2.17;83.77
57709;SHT35;42558;52.388;13.390;2023-04-26T03:49:45;2.17;83.77
57709;SHT35;42558;52.388;13.390;2023-04-26T03:52:13;2.18;83.79
57709;SHT35;42558;52.388;13.390;2023-04-26T03:54:42;2.19;83.70
57709;SHT35;42558;52.388;13.390;2023-04-26T03:57:10;2.21;83.73
57709;SHT35;42558;52.388;13.390;2023-04-26T03:59:38;2.20;83.70
57709;SHT35;42558;52.388;13.390;2023-04-26T04:02:07;2.21;83.76
57709;SHT35;42558;52.388;13.390;2023-04-26T04:04:35;2.25;83.75
57709;SHT35;42558;52.388;13.390;2023-04-26T04:07:04;2.25;83.72
57709;SHT35;42558;52.388;13.390;2023-04-26T04:09:32;2.25;83.69
57709;SHT35;42558;52.388;13.390;2023-04-26T04:12:01;2.29;83.68
57709;SHT35;42558;52.388;13.390;2023-04-26T04:14:29;2.30;83.62
57709;SHT35;42558;52.388;13.390;2023-04-26T04:16:58;2.31;83.50
57709;SHT35;42558;52.388;13.390;2023-04-26T04:19:26;2.28;83.57
57709;SHT35;42558;52.388;13.390;2023-04-26T04:21:55;2.27;83.68
57709;SHT35;42558;52.388;13.390;2023-04-26T04:24:23;2.32;83.80
57709;SHT35;42558;52.388;13.390;2023-04-26T04:26:52;2.39;83.76
57709;SHT35;42558;52.388;13.390;2023-04-26T04:29:20;2.42;83.64
57709;SHT35;42558;52.388;13.390;2023-04-26T04:31:48;2.48;83.62
57709;SHT35;42558;52.388;13.390;2023-04-26T04:34:17;2.54;83.39
57709;SHT35;42558;52.388;13.390;2023-04-26T04:36:45;2.62;83.20
57709;SHT35;42558;52.388;13.390;2023-04-26T04:39:14;2.67;83.04
57709;SHT35;42558;52.388;13.390;2023-04-26T04:41:42;2.71;82.96
57709;SHT35;42558;52.388;13.390;2023-04-26T04:44:14;2.75;82.86
57709;SHT35;42558;52.388;13.390;2023-04-26T04:46:42;2.79;82.86
57709;SHT35;42558;52.388;13.390;2023-04-26T04:49:11;2.88;82.66
57709;SHT35;42558;52.388;13.390;2023-04-26T04:51:39;2.95;82.37
57709;SHT35;42558;52.388;13.390;2023-04-26T04:54:08;3.01;82.30
57709;SHT35;42558;52.388;13.390;2023-04-26T04:56:40;3.08;82.08
57709;SHT35;42558;52.388;13.390;2023-04-26T04:59:10;3.16;81.74
57709;SHT35;42558;52.388;13.390;2023-04-26T05:01:40;3.24;81.52
57709;SHT35;42558;52.388;13.390;2023-04-26T05:04:10;3.33;81.24
57709;SHT35;42558;52.388;13.390;2023-04-26T05:06:40;3.41;80.92
57709;SHT35;42558;52.388;13.390;2023-04-26T05:09:11;3.48;80.74
57709;SHT35;42558;52.388;13.390;2023-04-26T05:11:40;3.55;80.44
57709;SHT35;42558;52.388;13.390;2023-04-26T05:14:10;3.63;80.23
57709;SHT35;42558;52.388;13.390;2023-04-26T05:16:40;3.69;79.97
57709;SHT35;42558;52.388;13.390;2023-04-26T05:19:10;3.76;79.62
57709;SHT35;42558;52.388;13.390;2023-04-26T05:21:41;3.80;79.24
57709;SHT35;42558;52.388;13.390;2023-04-26T05:24:11;3.92;78.99
57709;SHT35;42558;52.388;13.390;2023-04-26T05:26:41;4.03;78.69
57709;SHT35;42558;52.388;13.390;2023-04-26T05:29:11;4.14;78.42
57709;SHT35;42558;52.388;13.390;2023-04-26T05:31:41;4.28;78.18
57709;SHT35;42558;52.388;13.390;2023-04-26T05:34:11;4.35;77.50
57709;SHT35;42558;52.388;13.390;2023-04-26T05:36:40;4.44;77.16
57709;SHT35;42558;52.388;13.390;2023-04-26T05:39:10;4.49;76.91
57709;SHT35;42558;52.388;13.390;2023-04-26T05:41:40;4.60;76.65
57709;SHT35;42558;52.388;13.390;2023-04-26T05:44:11;4.59;76.31
57709;SHT35;42558;52.388;13.390;2023-04-26T05:46:45;4.71;75.71
57709;SHT35;42558;52.388;13.390;2023-04-26T05:49:15;4.90;75.60
57709;SHT35;42558;52.388;13.390;2023-04-26T05:51:45;4.99;75.13
57709;SHT35;42558;52.388;13.390;2023-04-26T05:54:15;5.07;74.94
57709;SHT35;42558;52.388;13.390;2023-04-26T05:56:43;5.08;74.26
57709;SHT35;42558;52.388;13.390;2023-04-26T05:59:11;5.17;74.19
57709;SHT35;42558;52.388;13.390;2023-04-26T06:01:40;5.33;73.57
57709;SHT35;42558;52.388;13.390;2023-04-26T06:04:08;5.44;73.57
57709;SHT35;42558;52.388;13.390;2023-04-26T06:06:37;5.54;73.38
57709;SHT35;42558;52.388;13.390;2023-04-26T06:09:05;5.63;72.80
57709;SHT35;42558;52.388;13.390;2023-04-26T06:11:34;5.75;72.27
57709;SHT35;42558;52.388;13.390;2023-04-26T06:14:02;5.95;71.72
57709;SHT35;42558;52.388;13.390;2023-04-26T06:16:30;5.89;70.79
57709;SHT35;42558;52.388;13.390;2023-04-26T06:18:59;5.97;71.16
57709;SHT35;42558;52.388;13.390;2023-04-26T06:21:27;6.06;70.52
57709;SHT35;42558;52.388;13.390;2023-04-26T06:23:56;6.33;70.05
57709;SHT35;42558;52.388;13.390;2023-04-26T06:26:24;6.53;70.04
57709;SHT35;42558;52.388;13.390;2023-04-26T06:28:53;6.53;69.21
57709;SHT35;42558;52.388;13.390;2023-04-26T06:31:21;6.55;68.97
57709;SHT35;42558;52.388;13.390;2023-04-26T06:33:49;6.45;68.50
57709;SHT35;42558;52.388;13.390;2023-04-26T06:36:18;6.60;68.67
57709;SHT35;42558;52.388;13.390;2023-04-26T06:38:46;6.78;68.21
57709;SHT35;42558;52.388;13.390;2023-04-26T06:41:15;7.08;67.83
57709;SHT35;42558;52.388;13.390;2023-04-26T06:43:43;7.01;67.10
57709;SHT35;42558;52.388;13.390;2023-04-26T06:46:11;7.09;67.11
57709;SHT35;42558;52.388;13.390;2023-04-26T06:48:40;7.49;66.00
57709;SHT35;42558;52.388;13.390;2023-04-26T06:51:08;7.68;65.77
57709;SHT35;42558;52.388;13.390;2023-04-26T06:53:37;7.88;65.04
57709;SHT35;42558;52.388;13.390;2023-04-26T06:56:05;8.02;64.78
57709;SHT35;42558;52.388;13.390;2023-04-26T06:58:34;7.98;64.53
57709;SHT35;42558;52.388;13.390;2023-04-26T07:01:02;8.11;64.28
57709;SHT35;42558;52.388;13.390;2023-04-26T07:03:30;8.35;63.46
57709;SHT35;42558;52.388;13.390;2023-04-26T07:05:59;8.26;63.10
57709;SHT35;42558;52.388;13.390;2023-04-26T07:08:27;7.97;63.46
57709;SHT35;42558;52.388;13.390;2023-04-26T07:10:56;8.18;63.38
57709;SHT35;42558;52.388;13.390;2023-04-26T07:13:24;8.43;62.62
57709;SHT35;42558;52.388;13.390;2023-04-26T07:15:53;7.84;63.60
57709;SHT35;42558;52.388;13.390;2023-04-26T07:18:21;7.98;64.14
57709;SHT35;42558;52.388;13.390;2023-04-26T07:20:49;7.80;63.65
57709;SHT35;42558;52.388;13.390;2023-04-26T07:23:18;8.20;63.00
57709;SHT35;42558;52.388;13.390;2023-04-26T07:25:46;7.88;62.91
57709;SHT35;42558;52.388;13.390;2023-04-26T07:28:14;7.53;62.92
57709;SHT35;42558;52.388;13.390;2023-04-26T07:30:43;7.43;64.12
57709;SHT35;42558;52.388;13.390;2023-04-26T07:33:11;8.25;62.91
57709;SHT35;42558;52.388;13.390;2023-04-26T07:35:41;8.45;61.19
57709;SHT35;42558;52.388;13.390;2023-04-26T07:38:11;8.51;60.97
57709;SHT35;42558;52.388;13.390;2023-04-26T07:40:48;8.95;60.67
57709;SHT35;42558;52.388;13.390;2023-04-26T07:43:19;8.99;58.56
57709;SHT35;42558;52.388;13.390;2023-04-26T07:45:49;9.10;59.15
57709;SHT35;42558;52.388;13.390;2023-04-26T07:48:20;8.60;59.43
57709;SHT35;42558;52.388;13.390;2023-04-26T07:50:50;8.64;59.95
57709;SHT35;42558;52.388;13.390;2023-04-26T07:53:20;8.53;60.35
57709;SHT35;42558;52.388;13.390;2023-04-26T07:55:51;8.81;59.28
57709;SHT35;42558;52.388;13.390;2023-04-26T07:58:21;9.52;60.53
57709;SHT35;42558;52.388;13.390;2023-04-26T08:00:51;9.28;60.84
57709;SHT35;42558;52.388;13.390;2023-04-26T08:03:21;8.91;61.77
57709;SHT35;42558;52.388;13.390;2023-04-26T08:05:51;9.36;62.48
57709;SHT35;42558;52.388;13.390;2023-04-26T08:08:22;9.87;59.57
57709;SHT35;42558;52.388;13.390;2023-04-26T08:10:52;10.02;58.99
57709;SHT35;42558;52.388;13.390;2023-04-26T08:13:22;9.86;58.48
57709;SHT35;42558;52.388;13.390;2023-04-26T08:15:53;9.75;58.83
57709;SHT35;42558;52.388;13.390;2023-04-26T08:18:24;9.90;59.15
57709;SHT35;42558;52.388;13.390;2023-04-26T08:20:54;9.32;59.00
57709;SHT35;42558;52.388;13.390;2023-04-26T08:23:23;9.19;60.38
57709;SHT35;42558;52.388;13.390;2023-04-26T08:25:53;8.86;60.61
57709;SHT35;42558;52.388;13.390;2023-04-26T08:28:23;8.91;61.19
57709;SHT35;42558;52.388;13.390;2023-04-26T08:30:53;9.59;60.12
57709;SHT35;42558;52.388;13.390;2023-04-26T08:33:24;9.31;59.53
57709;SHT35;42558;52.388;13.390;2023-04-26T08:35:54;9.93;60.42
57709;SHT35;42558;52.388;13.390;2023-04-26T08:38:24;10.01;57.80
57709;SHT35;42558;52.388;13.390;2023-04-26T08:40:54;8.99;59.52
57709;SHT35;42558;52.388;13.390;2023-04-26T08:43:27;8.89;60.90
57709;SHT35;42558;52.388;13.390;2023-04-26T08:45:58;9.17;60.42
57709;SHT35;42558;52.388;13.390;2023-04-26T08:48:30;9.18;59.58
57709;SHT35;42558;52.388;13.390;2023-04-26T08:51:04;9.46;60.53
57709;SHT35;42558;52.388;13.390;2023-04-26T08:53:39;9.98;57.81
57709;SHT35;42558;52.388;13.390;2023-04-26T08:56:11;10.30;55.91
57709;SHT35;42558;52.388;13.390;2023-04-26T08:58:42;10.10;57.23
57709;SHT35;42558;52.388;13.390;2023-04-26T09:01:12;10.29;55.90
57709;SHT35;42558;52.388;13.390;2023-04-26T09:03:43;10.39;53.91
57709;SHT35;42558;52.388;13.390;2023-04-26T09:06:13;10.70;53.33
57709;SHT35;42558;52.388;13.390;2023-04-26T09:08:44;11.27;51.43
57709;SHT35;42558;52.388;13.390;2023-04-26T09:11:14;11.45;51.59
57709;SHT35;42558;52.388;13.390;2023-04-26T09:13:44;11.32;51.00
57709;SHT35;42558;52.388;13.390;2023-04-26T09:16:14;10.43;52.49
57709;SHT35;42558;52.388;13.390;2023-04-26T09:18:50;10.06;54.78
57709;SHT35;42558;52.388;13.390;2023-04-26T09:21:18;10.20;54.27
57709;SHT35;42558;52.388;13.390;2023-04-26T09:23:57;10.14;54.10
57709;SHT35;42558;52.388;13.390;2023-04-26T09:26:27;9.92;52.81
57709;SHT35;42558;52.388;13.390;2023-04-26T09:29:09;9.93;53.40
57709;SHT35;42558;52.388;13.390;2023-04-26T09:31:48;9.77;54.69
57709;SHT35;42558;52.388;13.390;2023-04-26T09:34:18;9.95;55.79
57709;SHT35;42558;52.388;13.390;2023-04-26T09:36:53;10.05;56.34
57709;SHT35;42558;52.388;13.390;2023-04-26T09:42:02;10.75;54.42
57709;SHT35;42558;52.388;13.390;2023-04-26T09:44:32;10.75;52.90
57709;SHT35;42558;52.388;13.390;2023-04-26T09:47:06;10.04;53.18
57709;SHT35;42558;52.388;13.390;2023-04-26T09:49:47;9.73;54.78
57709;SHT35;42558;52.388;13.390;2023-04-26T09:52:19;10.03;54.97
57709;SHT35;42558;52.388;13.390;2023-04-26T09:54:50;9.94;55.51
57709;SHT35;42558;52.388;13.390;2023-04-26T09:57:20;9.73;55.19
57709;SHT35;42558;52.388;13.390;2023-04-26T09:59:51;9.42;57.24
57709;SHT35;42558;52.388;13.390;2023-04-26T10:02:24;9.68;57.50
57709;SHT35;42558;52.388;13.390;2023-04-26T10:04:55;10.19;56.75
57709;SHT35;42558;52.388;13.390;2023-04-26T10:07:25;10.29;54.40
57709;SHT35;42558;52.388;13.390;2023-04-26T10:09:55;9.91;53.69
57709;SHT35;42558;52.388;13.390;2023-04-26T10:12:26;9.49;55.33
57709;SHT35;42558;52.388;13.390;2023-04-26T10:14:56;9.65;53.33
57709;SHT35;42558;52.388;13.390;2023-04-26T10:17:26;9.72;53.79
57709;SHT35;42558;52.388;13.390;2023-04-26T10:19:55;9.94;53.97
57709;SHT35;42558;52.388;13.390;2023-04-26T10:22:27;10.01;53.83
57709;SHT35;42558;52.388;13.390;2023-04-26T10:24:59;9.57;54.13
57709;SHT35;42558;52.388;13.390;2023-04-26T10:30:15;9.62;55.43
57709;SHT35;42558;52.388;13.390;2023-04-26T10:35:21;9.19;53.02
57709;SHT35;42558;52.388;13.390;2023-04-26T10:40:32;9.38;53.20
57709;SHT35;42558;52.388;13.390;2023-04-26T10:45:37;9.84;53.70
57709;SHT35;42558;52.388;13.390;2023-04-26T10:48:15;10.70;51.96
57709;SHT35;42558;52.388;13.390;2023-04-26T10:56:03;11.04;47.85
57709;SHT35;42558;52.388;13.390;2023-04-26T10:58:33;10.90;47.68
57709;SHT35;42558;52.388;13.390;2023-04-26T11:03:42;10.42;47.11
57709;SHT35;42558;52.388;13.390;2023-04-26T11:06:50;10.27;48.54
57709;SHT35;42558;52.388;13.390;2023-04-26T11:12:13;10.21;48.71
57709;SHT35;42558;52.388;13.390;2023-04-26T11:14:46;10.18;50.44
57709;SHT35;42558;52.388;13.390;2023-04-26T11:17:16;10.07;50.63
57709;SHT35;42558;52.388;13.390;2023-04-26T11:19:45;9.50;52.56
57709;SHT35;42558;52.388;13.390;2023-04-26T11:22:20;9.30;54.84
57709;SHT35;42558;52.388;13.390;2023-04-26T11:24:51;9.15;55.47
57709;SHT35;42558;52.388;13.390;2023-04-26T11:27:21;8.96;55.41
57709;SHT35;42558;52.388;13.390;2023-04-26T11:29:55;9.09;55.06
57709;SHT35;42558;52.388;13.390;2023-04-26T11:32:24;9.09;54.46
57709;SHT35;42558;52.388;13.390;2023-04-26T11:34:52;9.24;55.07
57709;SHT35;42558;52.388;13.390;2023-04-26T11:37:21;9.48;54.87
57709;SHT35;42558;52.388;13.390;2023-04-26T11:39:49;9.49;54.02
57709;SHT35;42558;52.388;13.390;2023-04-26T11:42:17;9.68;53.80
57709;SHT35;42558;52.388;13.390;2023-04-26T11:44:55;9.50;53.29
57709;SHT35;42558;52.388;13.390;2023-04-26T11:47:27;9.44;52.88
57709;SHT35;42558;52.388;13.390;2023-04-26T11:49:59;9.27;52.62
57709;SHT35;42558;52.388;13.390;2023-04-26T11:52:29;9.07;53.54
57709;SHT35;42558;52.388;13.390;2023-04-26T11:55:03;9.08;54.34
57709;SHT35;42558;52.388;13.390;2023-04-26T11:57:34;9.12;54.96
57709;SHT35;42558;52.388;13.390;2023-04-26T12:00:09;9.34;55.10
57709;SHT35;42558;52.388;13.390;2023-04-26T12:02:45;9.33;55.07
57709;SHT35;42558;52.388;13.390;2023-04-26T12:05:20;9.36;53.40
57709;SHT35;42558;52.388;13.390;2023-04-26T12:07:58;9.38;52.25
57709;SHT35;42558;52.388;13.390;2023-04-26T12:10:33;9.65;53.27
57709;SHT35;42558;52.388;13.390;2023-04-26T12:13:05;9.79;52.71
57709;SHT35;42558;52.388;13.390;2023-04-26T12:15:32;10.07;51.79
57709;SHT35;42558;52.388;13.390;2023-04-26T12:18:07;9.91;51.99
57709;SHT35;42558;52.388;13.390;2023-04-26T12:20:39;9.98;52.36
57709;SHT35;42558;52.388;13.390;2023-04-26T12:23:12;10.18;51.59
57709;SHT35;42558;52.388;13.390;2023-04-26T12:25:55;10.43;49.73
57709;SHT35;42558;52.388;13.390;2023-04-26T12:28:30;10.60;50.09
57709;SHT35;42558;52.388;13.390;2023-04-26T12:30:59;10.50;48.40
57709;SHT35;42558;52.388;13.390;2023-04-26T12:33:31;10.19;48.84
57709;SHT35;42558;52.388;13.390;2023-04-26T12:36:10;9.92;49.65
57709;SHT35;42558;52.388;13.390;2023-04-26T12:38:41;9.67;51.11
57709;SHT35;42558;52.388;13.390;2023-04-26T12:41:11;9.45;54.27
57709;SHT35;42558;52.388;13.390;2023-04-26T12:43:41;9.15;57.38
57709;SHT35;42558;52.388;13.390;2023-04-26T12:46:10;9.18;60.10
57709;SHT35;42558;52.388;13.390;2023-04-26T12:48:40;9.34;61.10
57709;SHT35;42558;52.388;13.390;2023-04-26T12:51:10;9.45;58.75
57709;SHT35;42558;52.388;13.390;2023-04-26T12:53:40;9.60;57.31
57709;SHT35;42558;52.388;13.390;2023-04-26T12:56:10;9.76;55.60
57709;SHT35;42558;52.388;13.390;2023-04-26T12:58:40;10.20;54.72
57709;SHT35;42558;52.388;13.390;2023-04-26T13:01:11;11.00;49.70
57709;SHT35;42558;52.388;13.390;2023-04-26T13:03:42;10.99;47.08
57709;SHT35;42558;52.388;13.390;2023-04-26T13:06:13;11.04;47.70
57709;SHT35;42558;52.388;13.390;2023-04-26T13:08:43;11.13;48.56
57709;SHT35;42558;52.388;13.390;2023-04-26T13:11:13;11.09;49.17
57709;SHT35;42558;52.388;13.390;2023-04-26T13:13:43;11.05;48.54
57709;SHT35;42558;52.388;13.390;2023-04-26T13:16:12;10.51;49.42
57709;SHT35;42558;52.388;13.390;2023-04-26T13:18:40;10.69;49.45
57709;SHT35;42558;52.388;13.390;2023-04-26T13:21:09;11.34;49.41
57709;SHT35;42558;52.388;13.390;2023-04-26T13:23:37;11.80;47.32
57709;SHT35;42558;52.388;13.390;2023-04-26T13:26:06;11.20;46.86
57709;SHT35;42558;52.388;13.390;2023-04-26T13:28:34;11.73;47.09
57709;SHT35;42558;52.388;13.390;2023-04-26T13:31:03;12.17;47.20
57709;SHT35;42558;52.388;13.390;2023-04-26T13:33:31;12.43;47.23
57709;SHT35;42558;52.388;13.390;2023-04-26T13:36:00;12.23;46.69
57709;SHT35;42558;52.388;13.390;2023-04-26T13:38:28;11.92;46.35
57709;SHT35;42558;52.388;13.390;2023-04-26T13:41:00;11.80;45.55
57709;SHT35;42558;52.388;13.390;2023-04-26T13:43:28;11.85;46.45
57709;SHT35;42558;52.388;13.390;2023-04-26T13:45:56;11.82;47.16
57709;SHT35;42558;52.388;13.390;2023-04-26T13:48:26;11.79;48.40
57709;SHT35;42558;52.388;13.390;2023-04-26T13:50:56;11.05;47.48
57709;SHT35;42558;52.388;13.390;2023-04-26T13:53:27;10.64;48.95
57709;SHT35;42558;52.388;13.390;2023-04-26T13:55:57;10.76;48.43
57709;SHT35;42558;52.388;13.390;2023-04-26T13:58:26;10.68;48.19
57709;SHT35;42558;52.388;13.390;2023-04-26T14:00:56;10.15;48.54
57709;SHT35;42558;52.388;13.390;2023-04-26T14:03:26;10.19;49.69
57709;SHT35;42558;52.388;13.390;2023-04-26T14:05:56;10.38;49.55
57709;SHT35;42558;52.388;13.390;2023-04-26T14:08:26;10.30;49.08
57709;SHT35;42558;52.388;13.390;2023-04-26T14:10:56;10.30;49.26
57709;SHT35;42558;52.388;13.390;2023-04-26T14:13:26;10.26;49.10
57709;SHT35;42558;52.388;13.390;2023-04-26T14:15:55;10.28;48.32
57709;SHT35;42558;52.388;13.390;2023-04-26T14:18:25;10.28;48.28
57709;SHT35;42558;52.388;13.390;2023-04-26T14:20:55;10.54;48.67
57709;SHT35;42558;52.388;13.390;2023-04-26T14:23:25;10.92;48.46
57709;SHT35;42558;52.388;13.390;2023-04-26T14:25:55;10.81;47.11
57709;SHT35;42558;52.388;13.390;2023-04-26T14:28:24;10.88;47.92
57709;SHT35;42558;52.388;13.390;2023-04-26T14:30:54;10.67;47.53
57709;SHT35;42558;52.388;13.390;2023-04-26T14:33:24;10.66;47.59
57709;SHT35;42558;52.388;13.390;2023-04-26T14:35:54;10.71;47.98
57709;SHT35;42558;52.388;13.390;2023-04-26T14:38:24;10.94;47.74
57709;SHT35;42558;52.388;13.390;2023-04-26T14:40:55;11.59;47.06
57709;SHT35;42558;52.388;13.390;2023-04-26T14:43:23;12.05;46.99
57709;SHT35;42558;52.388;13.390;2023-04-26T14:45:51;12.46;46.24
57709;SHT35;42558;52.388;13.390;2023-04-26T14:48:20;12.16;44.48
57709;SHT35;42558;52.388;13.390;2023-04-26T14:50:48;11.26;46.08
57709;SHT35;42558;52.388;13.390;2023-04-26T14:53:17;10.86;47.54
57709;SHT35;42558;52.388;13.390;2023-04-26T14:55:45;10.74;48.02
57709;SHT35;42558;52.388;13.390;2023-04-26T14:58:23;10.67;48.70
57709;SHT35;42558;52.388;13.390;2023-04-26T15:00:54;11.15;49.12
57709;SHT35;42558;52.388;13.390;2023-04-26T15:03:24;11.32;46.49
57709;SHT35;42558;52.388;13.390;2023-04-26T15:05:55;10.89;48.28
57709;SHT35;42558;52.388;13.390;2023-04-26T15:08:25;11.23;48.74
57709;SHT35;42558;52.388;13.390;2023-04-26T15:10:55;11.49;47.44
57709;SHT35;42558;52.388;13.390;2023-04-26T15:13:24;11.20;47.72
57709;SHT35;42558;52.388;13.390;2023-04-26T15:15:55;11.12;47.33
57709;SHT35;42558;52.388;13.390;2023-04-26T15:18:24;11.18;47.36
57709;SHT35;42558;52.388;13.390;2023-04-26T15:20:55;11.52;46.56
57709;SHT35;42558;52.388;13.390;2023-04-26T15:23:24;11.35;46.52
57709;SHT35;42558;52.388;13.390;2023-04-26T15:25:55;11.37;47.28
57709;SHT35;42558;52.388;13.390;2023-04-26T15:28:31;11.00;47.65
57709;SHT35;42558;52.388;13.390;2023-04-26T15:31:04;10.81;47.78
57709;SHT35;42558;52.388;13.390;2023-04-26T15:33:37;11.16;48.56
57709;SHT35;42558;52.388;13.390;2023-04-26T15:36:07;11.50;46.83
57709;SHT35;42558;52.388;13.390;2023-04-26T15:38:37;11.24;46.93
57709;SHT35;42558;52.388;13.390;2023-04-26T15:41:10;11.30;46.45
57709;SHT35;42558;52.388;13.390;2023-04-26T15:43:39;10.88;46.40
57709;SHT35;42558;52.388;13.390;2023-04-26T15:46:11;10.70;47.19
57709;SHT35;42558;52.388;13.390;2023-04-26T15:48:43;10.71;47.13
57709;SHT35;42558;52.388;13.390;2023-04-26T15:51:13;10.71;47.47
57709;SHT35;42558;52.388;13.390;2023-04-26T15:53:43;10.95;48.12
57709;SHT35;42558;52.388;13.390;2023-04-26T15:56:13;10.99;47.49
57709;SHT35;42558;52.388;13.390;2023-04-26T15:58:41;10.61;47.77
57709;SHT35;42558;52.388;13.390;2023-04-26T16:01:13;10.48;49.37
57709;SHT35;42558;52.388;13.390;2023-04-26T16:03:41;10.47;49.71
57709;SHT35;42558;52.388;13.390;2023-04-26T16:06:15;10.44;49.96
57709;SHT35;42558;52.388;13.390;2023-04-26T16:08:45;10.37;50.58